sensor_id;sensor_type;location;lat;lon;timestamp;P1;durP1;ratioP1;P2;durP2;ratioP2
18929;SDS011;43305;52.186;5.598;2022-10-16T00:00:46;5.85;;;2.00;;
18929;SDS011;43305;52.186;5.598;2022-10-16T00:03:18;8.00;;;2.00;;
18929;SDS011;43305;52.186;5.598;2022-10-16T00:05:45;5.75;;;2.30;;
18929;SDS011;43305;52.186;5.598;2022-10-16T00:08:12;5.13;;;1.88;;
18929;SDS011;43305;52.186;5.598;2022-10-16T00:10:39;6.60;;;2.00;;
18929;SDS011;43305;52.186;5.598;2022-10-16T00:13:08;6.20;;;2.25;;
18929;SDS011;43305;52.186;5.598;2022-10-16T00:15:35;6.00;;;2.70;;
18929;SDS011;43305;52.186;5.598;2022-10-16T00:18:05;4.75;;;2.00;;
18929;SDS011;43305;52.186;5.598;2022-10-16T00:20:33;6.07;;;2.20;;
18929;SDS011;43305;52.186;5.598;2022-10-16T00:23:02;5.75;;;2.22;;
18929;SDS011;43305;52.186;5.598;2022-10-16T00:25:29;7.13;;;2.30;;
18929;SDS011;43305;52.186;5.598;2022-10-16T00:27:59;5.85;;;2.53;;
18929;SDS011;43305;52.186;5.598;2022-10-16T00:30:26;5.40;;;2.20;;
18929;SDS011;43305;52.186;5.598;2022-10-16T00:32:54;9.38;;;2.72;;
18929;SDS011;43305;52.186;5.598;2022-10-16T00:35:22;8.07;;;2.30;;
18929;SDS011;43305;52.186;5.598;2022-10-16T00:37:49;9.10;;;2.53;;
18929;SDS011;43305;52.186;5.598;2022-10-16T00:40:16;8.90;;;2.30;;
18929;SDS011;43305;52.186;5.598;2022-10-16T00:42:43;5.47;;;2.40;;
18929;SDS011;43305;52.186;5.598;2022-10-16T00:45:09;4.80;;;2.20;;
18929;SDS011;43305;52.186;5.598;2022-10-16T00:47:38;8.23;;;2.67;;
18929;SDS011;43305;52.186;5.598;2022-10-16T00:50:08;8.40;;;2.60;;
18929;SDS011;43305;52.186;5.598;2022-10-16T00:52:39;8.48;;;2.50;;
18929;SDS011;43305;52.186;5.598;2022-10-16T00:55:09;6.68;;;2.58;;
18929;SDS011;43305;52.186;5.598;2022-10-16T00:57:39;6.10;;;2.45;;
18929;SDS011;43305;52.186;5.598;2022-10-16T01:00:09;4.63;;;2.10;;
18929;SDS011;43305;52.186;5.598;2022-10-16T01:02:38;6.28;;;2.22;;
18929;SDS011;43305;52.186;5.598;2022-10-16T01:05:05;6.45;;;2.30;;
18929;SDS011;43305;52.186;5.598;2022-10-16T01:07:34;10.13;;;2.20;;
18929;SDS011;43305;52.186;5.598;2022-10-16T01:10:11;6.35;;;2.25;;
18929;SDS011;43305;52.186;5.598;2022-10-16T01:12:50;6.72;;;2.50;;
18929;SDS011;43305;52.186;5.598;2022-10-16T01:15:22;6.10;;;2.20;;
18929;SDS011;43305;52.186;5.598;2022-10-16T01:17:56;6.20;;;2.30;;
18929;SDS011;43305;52.186;5.598;2022-10-16T01:20:27;5.45;;;2.17;;
18929;SDS011;43305;52.186;5.598;2022-10-16T01:23:06;3.55;;;1.80;;
18929;SDS011;43305;52.186;5.598;2022-10-16T01:28:36;5.18;;;2.03;;
18929;SDS011;43305;52.186;5.598;2022-10-16T01:31:07;6.88;;;2.45;;
18929;SDS011;43305;52.186;5.598;2022-10-16T01:33:38;3.92;;;2.17;;
18929;SDS011;43305;52.186;5.598;2022-10-16T01:36:10;7.10;;;2.30;;
18929;SDS011;43305;52.186;5.598;2022-10-16T01:38:40;5.97;;;2.20;;
18929;SDS011;43305;52.186;5.598;2022-10-16T01:41:10;4.80;;;2.30;;
18929;SDS011;43305;52.186;5.598;2022-10-16T01:43:43;4.95;;;2.10;;
18929;SDS011;43305;52.186;5.598;2022-10-16T01:46:15;4.90;;;2.42;;
18929;SDS011;43305;52.186;5.598;2022-10-16T01:48:44;4.55;;;2.38;;
18929;SDS011;43305;52.186;5.598;2022-10-16T01:51:12;6.95;;;2.53;;
18929;SDS011;43305;52.186;5.598;2022-10-16T01:53:41;6.85;;;2.22;;
18929;SDS011;43305;52.186;5.598;2022-10-16T01:56:13;4.53;;;2.38;;
18929;SDS011;43305;52.186;5.598;2022-10-16T01:58:45;4.15;;;2.08;;
18929;SDS011;43305;52.186;5.598;2022-10-16T02:01:16;5.40;;;2.30;;
18929;SDS011;43305;52.186;5.598;2022-10-16T02:03:48;5.78;;;2.30;;
18929;SDS011;43305;52.186;5.598;2022-10-16T02:06:19;5.80;;;2.25;;
18929;SDS011;43305;52.186;5.598;2022-10-16T02:08:46;6.25;;;2.50;;
18929;SDS011;43305;52.186;5.598;2022-10-16T02:11:13;6.43;;;2.67;;
18929;SDS011;43305;52.186;5.598;2022-10-16T02:13:41;5.13;;;2.30;;
18929;SDS011;43305;52.186;5.598;2022-10-16T02:16:14;3.88;;;2.13;;
18929;SDS011;43305;52.186;5.598;2022-10-16T02:18:43;4.00;;;2.28;;
18929;SDS011;43305;52.186;5.598;2022-10-16T02:21:11;3.83;;;2.25;;
18929;SDS011;43305;52.186;5.598;2022-10-16T02:23:43;5.18;;;2.10;;
18929;SDS011;43305;52.186;5.598;2022-10-16T02:26:25;5.65;;;2.30;;
18929;SDS011;43305;52.186;5.598;2022-10-16T02:29:01;5.05;;;2.45;;
18929;SDS011;43305;52.186;5.598;2022-10-16T02:31:34;4.20;;;2.35;;
18929;SDS011;43305;52.186;5.598;2022-10-16T02:34:07;6.63;;;2.63;;
18929;SDS011;43305;52.186;5.598;2022-10-16T02:36:36;4.57;;;2.50;;
18929;SDS011;43305;52.186;5.598;2022-10-16T02:39:05;4.20;;;2.38;;
18929;SDS011;43305;52.186;5.598;2022-10-16T02:41:32;6.78;;;2.88;;
18929;SDS011;43305;52.186;5.598;2022-10-16T02:44:01;7.20;;;2.47;;
18929;SDS011;43305;52.186;5.598;2022-10-16T02:46:27;3.65;;;2.53;;
18929;SDS011;43305;52.186;5.598;2022-10-16T02:48:56;4.68;;;2.22;;
18929;SDS011;43305;52.186;5.598;2022-10-16T02:51:23;4.93;;;2.38;;
18929;SDS011;43305;52.186;5.598;2022-10-16T02:53:50;6.35;;;2.67;;
18929;SDS011;43305;52.186;5.598;2022-10-16T02:56:17;7.72;;;2.35;;
18929;SDS011;43305;52.186;5.598;2022-10-16T02:58:43;4.38;;;2.17;;
18929;SDS011;43305;52.186;5.598;2022-10-16T03:01:12;6.85;;;2.25;;
18929;SDS011;43305;52.186;5.598;2022-10-16T03:03:41;6.15;;;2.33;;
18929;SDS011;43305;52.186;5.598;2022-10-16T03:06:08;3.95;;;2.38;;
18929;SDS011;43305;52.186;5.598;2022-10-16T03:08:35;6.03;;;2.45;;
18929;SDS011;43305;52.186;5.598;2022-10-16T03:11:02;3.78;;;2.10;;
18929;SDS011;43305;52.186;5.598;2022-10-16T03:13:29;4.22;;;2.22;;
18929;SDS011;43305;52.186;5.598;2022-10-16T03:15:55;5.55;;;2.75;;
18929;SDS011;43305;52.186;5.598;2022-10-16T03:18:24;3.65;;;2.40;;
18929;SDS011;43305;52.186;5.598;2022-10-16T03:20:50;7.68;;;2.78;;
18929;SDS011;43305;52.186;5.598;2022-10-16T03:23:17;4.03;;;2.40;;
18929;SDS011;43305;52.186;5.598;2022-10-16T03:25:44;5.35;;;2.20;;
18929;SDS011;43305;52.186;5.598;2022-10-16T03:28:11;5.45;;;2.47;;
18929;SDS011;43305;52.186;5.598;2022-10-16T03:30:37;7.70;;;2.47;;
18929;SDS011;43305;52.186;5.598;2022-10-16T03:33:04;5.80;;;2.30;;
18929;SDS011;43305;52.186;5.598;2022-10-16T03:35:34;4.60;;;2.22;;
18929;SDS011;43305;52.186;5.598;2022-10-16T03:38:01;3.72;;;2.35;;
18929;SDS011;43305;52.186;5.598;2022-10-16T03:40:28;5.00;;;2.60;;
18929;SDS011;43305;52.186;5.598;2022-10-16T03:42:56;5.55;;;2.47;;
18929;SDS011;43305;52.186;5.598;2022-10-16T03:45:23;5.25;;;2.30;;
18929;SDS011;43305;52.186;5.598;2022-10-16T03:47:51;5.97;;;2.50;;
18929;SDS011;43305;52.186;5.598;2022-10-16T03:50:17;5.13;;;2.50;;
18929;SDS011;43305;52.186;5.598;2022-10-16T03:52:46;6.75;;;2.75;;
18929;SDS011;43305;52.186;5.598;2022-10-16T03:55:13;4.38;;;2.40;;
18929;SDS011;43305;52.186;5.598;2022-10-16T03:57:39;5.80;;;2.63;;
18929;SDS011;43305;52.186;5.598;2022-10-16T04:00:06;6.45;;;2.50;;
18929;SDS011;43305;52.186;5.598;2022-10-16T04:02:34;5.95;;;2.60;;
18929;SDS011;43305;52.186;5.598;2022-10-16T04:05:00;3.00;;;2.30;;
18929;SDS011;43305;52.186;5.598;2022-10-16T04:07:27;5.32;;;2.50;;
18929;SDS011;43305;52.186;5.598;2022-10-16T04:09:56;3.88;;;2.30;;
18929;SDS011;43305;52.186;5.598;2022-10-16T04:12:23;4.82;;;2.28;;
18929;SDS011;43305;52.186;5.598;2022-10-16T04:14:50;4.57;;;2.40;;
18929;SDS011;43305;52.186;5.598;2022-10-16T04:17:17;3.80;;;2.17;;
18929;SDS011;43305;52.186;5.598;2022-10-16T04:19:44;4.32;;;2.10;;
18929;SDS011;43305;52.186;5.598;2022-10-16T04:22:13;4.82;;;2.00;;
18929;SDS011;43305;52.186;5.598;2022-10-16T04:24:40;5.78;;;1.95;;
18929;SDS011;43305;52.186;5.598;2022-10-16T04:27:08;4.18;;;2.15;;
18929;SDS011;43305;52.186;5.598;2022-10-16T04:29:35;2.95;;;2.00;;
18929;SDS011;43305;52.186;5.598;2022-10-16T04:32:01;4.70;;;2.30;;
18929;SDS011;43305;52.186;5.598;2022-10-16T04:34:28;5.38;;;1.70;;
18929;SDS011;43305;52.186;5.598;2022-10-16T04:36:55;2.63;;;1.83;;
18929;SDS011;43305;52.186;5.598;2022-10-16T04:39:22;4.05;;;2.10;;
18929;SDS011;43305;52.186;5.598;2022-10-16T04:41:49;5.07;;;1.88;;
18929;SDS011;43305;52.186;5.598;2022-10-16T04:44:17;3.42;;;1.98;;
18929;SDS011;43305;52.186;5.598;2022-10-16T04:46:44;4.50;;;2.20;;
18929;SDS011;43305;52.186;5.598;2022-10-16T04:49:11;6.60;;;2.00;;
18929;SDS011;43305;52.186;5.598;2022-10-16T04:51:38;4.47;;;1.80;;
18929;SDS011;43305;52.186;5.598;2022-10-16T04:54:06;4.72;;;1.65;;
18929;SDS011;43305;52.186;5.598;2022-10-16T04:56:33;6.97;;;1.95;;
18929;SDS011;43305;52.186;5.598;2022-10-16T04:59:05;4.82;;;2.00;;
18929;SDS011;43305;52.186;5.598;2022-10-16T05:01:34;3.72;;;2.20;;
18929;SDS011;43305;52.186;5.598;2022-10-16T05:04:03;4.25;;;2.05;;
18929;SDS011;43305;52.186;5.598;2022-10-16T05:06:30;4.30;;;1.92;;
18929;SDS011;43305;52.186;5.598;2022-10-16T05:08:57;5.40;;;1.73;;
18929;SDS011;43305;52.186;5.598;2022-10-16T05:11:23;5.50;;;1.98;;
18929;SDS011;43305;52.186;5.598;2022-10-16T05:13:50;3.33;;;1.88;;
18929;SDS011;43305;52.186;5.598;2022-10-16T05:16:17;3.38;;;2.00;;
18929;SDS011;43305;52.186;5.598;2022-10-16T05:18:45;4.70;;;2.10;;
18929;SDS011;43305;52.186;5.598;2022-10-16T05:21:12;4.93;;;1.95;;
18929;SDS011;43305;52.186;5.598;2022-10-16T05:23:39;5.13;;;2.47;;
18929;SDS011;43305;52.186;5.598;2022-10-16T05:26:07;5.68;;;2.13;;
18929;SDS011;43305;52.186;5.598;2022-10-16T05:28:34;5.68;;;2.17;;
18929;SDS011;43305;52.186;5.598;2022-10-16T05:31:03;3.50;;;2.22;;
18929;SDS011;43305;52.186;5.598;2022-10-16T05:33:31;7.05;;;2.60;;
18929;SDS011;43305;52.186;5.598;2022-10-16T05:36:01;10.25;;;2.67;;
18929;SDS011;43305;52.186;5.598;2022-10-16T05:38:29;4.50;;;2.33;;
18929;SDS011;43305;52.186;5.598;2022-10-16T05:40:56;6.97;;;2.38;;
18929;SDS011;43305;52.186;5.598;2022-10-16T05:43:26;6.13;;;2.70;;
18929;SDS011;43305;52.186;5.598;2022-10-16T05:45:54;6.65;;;3.05;;
18929;SDS011;43305;52.186;5.598;2022-10-16T05:48:21;5.57;;;2.65;;
18929;SDS011;43305;52.186;5.598;2022-10-16T05:50:48;8.05;;;3.10;;
18929;SDS011;43305;52.186;5.598;2022-10-16T05:53:23;5.60;;;2.72;;
18929;SDS011;43305;52.186;5.598;2022-10-16T05:55:51;9.48;;;3.40;;
18929;SDS011;43305;52.186;5.598;2022-10-16T05:58:18;11.30;;;3.60;;
18929;SDS011;43305;52.186;5.598;2022-10-16T06:00:52;8.15;;;3.90;;
18929;SDS011;43305;52.186;5.598;2022-10-16T06:03:19;11.35;;;3.95;;
18929;SDS011;43305;52.186;5.598;2022-10-16T06:05:46;12.68;;;4.50;;
18929;SDS011;43305;52.186;5.598;2022-10-16T06:08:12;8.68;;;4.60;;
18929;SDS011;43305;52.186;5.598;2022-10-16T06:10:41;10.15;;;4.80;;
18929;SDS011;43305;52.186;5.598;2022-10-16T06:13:08;11.38;;;5.15;;
18929;SDS011;43305;52.186;5.598;2022-10-16T06:15:35;9.55;;;4.97;;
18929;SDS011;43305;52.186;5.598;2022-10-16T06:18:03;15.27;;;5.28;;
18929;SDS011;43305;52.186;5.598;2022-10-16T06:20:30;9.40;;;4.93;;
18929;SDS011;43305;52.186;5.598;2022-10-16T06:22:57;11.65;;;5.60;;
18929;SDS011;43305;52.186;5.598;2022-10-16T06:25:24;11.70;;;5.60;;
18929;SDS011;43305;52.186;5.598;2022-10-16T06:27:52;9.32;;;5.22;;
18929;SDS011;43305;52.186;5.598;2022-10-16T06:30:19;12.27;;;5.50;;
18929;SDS011;43305;52.186;5.598;2022-10-16T06:32:46;11.23;;;5.30;;
18929;SDS011;43305;52.186;5.598;2022-10-16T06:35:13;10.82;;;5.15;;
18929;SDS011;43305;52.186;5.598;2022-10-16T06:37:43;11.98;;;5.55;;
18929;SDS011;43305;52.186;5.598;2022-10-16T06:40:10;10.60;;;5.20;;
18929;SDS011;43305;52.186;5.598;2022-10-16T06:42:39;10.02;;;5.13;;
18929;SDS011;43305;52.186;5.598;2022-10-16T06:45:07;11.35;;;5.50;;
18929;SDS011;43305;52.186;5.598;2022-10-16T06:47:35;11.98;;;5.32;;
18929;SDS011;43305;52.186;5.598;2022-10-16T06:50:01;12.10;;;5.50;;
18929;SDS011;43305;52.186;5.598;2022-10-16T06:52:29;13.07;;;5.68;;
18929;SDS011;43305;52.186;5.598;2022-10-16T06:54:55;11.10;;;4.70;;
18929;SDS011;43305;52.186;5.598;2022-10-16T06:57:22;9.80;;;4.57;;
18929;SDS011;43305;52.186;5.598;2022-10-16T06:59:49;10.98;;;5.10;;
18929;SDS011;43305;52.186;5.598;2022-10-16T07:02:17;10.25;;;4.93;;
18929;SDS011;43305;52.186;5.598;2022-10-16T07:04:44;14.63;;;5.95;;
18929;SDS011;43305;52.186;5.598;2022-10-16T07:07:10;13.75;;;5.03;;
18929;SDS011;43305;52.186;5.598;2022-10-16T07:09:37;14.18;;;4.60;;
18929;SDS011;43305;52.186;5.598;2022-10-16T07:12:04;11.75;;;4.25;;
18929;SDS011;43305;52.186;5.598;2022-10-16T07:14:31;7.68;;;3.97;;
18929;SDS011;43305;52.186;5.598;2022-10-16T07:16:58;9.75;;;4.05;;
18929;SDS011;43305;52.186;5.598;2022-10-16T07:19:26;8.57;;;3.63;;
18929;SDS011;43305;52.186;5.598;2022-10-16T07:21:53;12.05;;;4.00;;
18929;SDS011;43305;52.186;5.598;2022-10-16T07:24:22;10.07;;;3.65;;
18929;SDS011;43305;52.186;5.598;2022-10-16T07:26:49;7.57;;;2.70;;
18929;SDS011;43305;52.186;5.598;2022-10-16T07:29:17;7.13;;;2.90;;
18929;SDS011;43305;52.186;5.598;2022-10-16T07:31:46;7.90;;;3.03;;
18929;SDS011;43305;52.186;5.598;2022-10-16T07:34:15;8.38;;;3.00;;
18929;SDS011;43305;52.186;5.598;2022-10-16T07:36:44;9.02;;;2.80;;
18929;SDS011;43305;52.186;5.598;2022-10-16T07:39:13;7.10;;;2.90;;
18929;SDS011;43305;52.186;5.598;2022-10-16T07:41:40;6.55;;;2.60;;
18929;SDS011;43305;52.186;5.598;2022-10-16T07:44:07;10.30;;;2.50;;
18929;SDS011;43305;52.186;5.598;2022-10-16T07:46:34;5.05;;;2.10;;
18929;SDS011;43305;52.186;5.598;2022-10-16T07:49:02;7.22;;;2.25;;
18929;SDS011;43305;52.186;5.598;2022-10-16T07:51:31;6.95;;;2.25;;
18929;SDS011;43305;52.186;5.598;2022-10-16T07:53:59;3.97;;;1.95;;
18929;SDS011;43305;52.186;5.598;2022-10-16T07:56:26;6.22;;;2.05;;
18929;SDS011;43305;52.186;5.598;2022-10-16T07:58:53;6.07;;;1.85;;
18929;SDS011;43305;52.186;5.598;2022-10-16T08:01:21;5.93;;;2.10;;
18929;SDS011;43305;52.186;5.598;2022-10-16T08:03:49;9.80;;;2.15;;
18929;SDS011;43305;52.186;5.598;2022-10-16T08:06:17;4.10;;;2.00;;
18929;SDS011;43305;52.186;5.598;2022-10-16T08:08:45;8.60;;;2.20;;
18929;SDS011;43305;52.186;5.598;2022-10-16T08:11:15;5.65;;;2.35;;
18929;SDS011;43305;52.186;5.598;2022-10-16T08:13:42;4.53;;;2.03;;
18929;SDS011;43305;52.186;5.598;2022-10-16T08:16:09;9.05;;;2.10;;
18929;SDS011;43305;52.186;5.598;2022-10-16T08:18:36;8.80;;;2.33;;
18929;SDS011;43305;52.186;5.598;2022-10-16T08:21:04;6.53;;;2.53;;
18929;SDS011;43305;52.186;5.598;2022-10-16T08:23:32;10.80;;;2.70;;
18929;SDS011;43305;52.186;5.598;2022-10-16T08:26:02;6.50;;;2.50;;
18929;SDS011;43305;52.186;5.598;2022-10-16T08:28:32;5.80;;;2.60;;
18929;SDS011;43305;52.186;5.598;2022-10-16T08:31:07;10.32;;;2.58;;
18929;SDS011;43305;52.186;5.598;2022-10-16T08:33:37;8.15;;;2.80;;
18929;SDS011;43305;52.186;5.598;2022-10-16T08:36:04;7.07;;;2.72;;
18929;SDS011;43305;52.186;5.598;2022-10-16T08:38:33;5.35;;;2.30;;
18929;SDS011;43305;52.186;5.598;2022-10-16T08:41:04;6.80;;;2.22;;
18929;SDS011;43305;52.186;5.598;2022-10-16T08:43:56;9.45;;;2.40;;
18929;SDS011;43305;52.186;5.598;2022-10-16T08:46:35;9.32;;;2.45;;
18929;SDS011;43305;52.186;5.598;2022-10-16T08:49:08;7.60;;;2.45;;
18929;SDS011;43305;52.186;5.598;2022-10-16T08:51:38;8.60;;;2.03;;
18929;SDS011;43305;52.186;5.598;2022-10-16T08:54:05;7.95;;;2.15;;
18929;SDS011;43305;52.186;5.598;2022-10-16T08:56:36;9.52;;;2.33;;
18929;SDS011;43305;52.186;5.598;2022-10-16T08:59:06;6.40;;;2.13;;
18929;SDS011;43305;52.186;5.598;2022-10-16T09:01:37;9.38;;;2.42;;
18929;SDS011;43305;52.186;5.598;2022-10-16T09:04:17;8.32;;;3.15;;
18929;SDS011;43305;52.186;5.598;2022-10-16T09:06:59;9.50;;;1.83;;
18929;SDS011;43305;52.186;5.598;2022-10-16T09:09:34;7.40;;;2.40;;
18929;SDS011;43305;52.186;5.598;2022-10-16T09:12:11;5.93;;;2.13;;
18929;SDS011;43305;52.186;5.598;2022-10-16T09:14:47;8.13;;;2.20;;
18929;SDS011;43305;52.186;5.598;2022-10-16T09:17:22;8.18;;;2.00;;
18929;SDS011;43305;52.186;5.598;2022-10-16T09:19:56;13.02;;;2.58;;
18929;SDS011;43305;52.186;5.598;2022-10-16T09:22:39;13.02;;;2.13;;
18929;SDS011;43305;52.186;5.598;2022-10-16T09:25:10;12.27;;;2.00;;
18929;SDS011;43305;52.186;5.598;2022-10-16T09:27:38;8.02;;;1.70;;
18929;SDS011;43305;52.186;5.598;2022-10-16T09:30:11;8.38;;;1.88;;
18929;SDS011;43305;52.186;5.598;2022-10-16T09:32:39;7.38;;;2.00;;
18929;SDS011;43305;52.186;5.598;2022-10-16T09:35:10;9.38;;;1.95;;
18929;SDS011;43305;52.186;5.598;2022-10-16T09:37:40;6.72;;;1.98;;
18929;SDS011;43305;52.186;5.598;2022-10-16T09:40:11;10.88;;;2.17;;
18929;SDS011;43305;52.186;5.598;2022-10-16T09:42:39;13.98;;;2.38;;
18929;SDS011;43305;52.186;5.598;2022-10-16T09:45:20;9.10;;;1.90;;
18929;SDS011;43305;52.186;5.598;2022-10-16T09:47:49;11.55;;;2.00;;
18929;SDS011;43305;52.186;5.598;2022-10-16T09:50:20;7.85;;;1.80;;
18929;SDS011;43305;52.186;5.598;2022-10-16T09:52:51;11.45;;;2.03;;
18929;SDS011;43305;52.186;5.598;2022-10-16T09:55:29;8.98;;;2.08;;
18929;SDS011;43305;52.186;5.598;2022-10-16T09:57:56;10.75;;;2.00;;
18929;SDS011;43305;52.186;5.598;2022-10-16T10:00:24;9.20;;;1.90;;
18929;SDS011;43305;52.186;5.598;2022-10-16T10:02:51;9.10;;;2.05;;
18929;SDS011;43305;52.186;5.598;2022-10-16T10:05:20;8.73;;;1.90;;
18929;SDS011;43305;52.186;5.598;2022-10-16T10:07:53;9.73;;;1.80;;
18929;SDS011;43305;52.186;5.598;2022-10-16T10:10:22;11.13;;;2.22;;
18929;SDS011;43305;52.186;5.598;2022-10-16T10:12:51;12.45;;;2.10;;
18929;SDS011;43305;52.186;5.598;2022-10-16T10:15:18;12.40;;;2.33;;
18929;SDS011;43305;52.186;5.598;2022-10-16T10:17:49;13.10;;;2.17;;
18929;SDS011;43305;52.186;5.598;2022-10-16T10:20:25;7.88;;;1.70;;
18929;SDS011;43305;52.186;5.598;2022-10-16T10:22:53;11.98;;;2.20;;
18929;SDS011;43305;52.186;5.598;2022-10-16T10:25:25;9.93;;;1.90;;
18929;SDS011;43305;52.186;5.598;2022-10-16T10:30:51;14.88;;;2.10;;
18929;SDS011;43305;52.186;5.598;2022-10-16T10:33:26;13.30;;;1.83;;
18929;SDS011;43305;52.186;5.598;2022-10-16T10:36:02;10.90;;;2.10;;
18929;SDS011;43305;52.186;5.598;2022-10-16T10:38:39;8.45;;;1.77;;
18929;SDS011;43305;52.186;5.598;2022-10-16T10:41:16;10.07;;;1.95;;
18929;SDS011;43305;52.186;5.598;2022-10-16T10:43:55;11.27;;;1.60;;
18929;SDS011;43305;52.186;5.598;2022-10-16T10:46:31;10.57;;;1.70;;
18929;SDS011;43305;52.186;5.598;2022-10-16T10:49:06;10.38;;;1.63;;
18929;SDS011;43305;52.186;5.598;2022-10-16T10:51:41;8.40;;;1.63;;
18929;SDS011;43305;52.186;5.598;2022-10-16T10:54:18;10.35;;;1.55;;
18929;SDS011;43305;52.186;5.598;2022-10-16T10:56:51;8.63;;;1.70;;
18929;SDS011;43305;52.186;5.598;2022-10-16T10:59:31;11.40;;;1.58;;
18929;SDS011;43305;52.186;5.598;2022-10-16T11:02:16;16.35;;;2.17;;
18929;SDS011;43305;52.186;5.598;2022-10-16T11:04:57;10.27;;;1.88;;
18929;SDS011;43305;52.186;5.598;2022-10-16T11:07:45;10.90;;;1.88;;
18929;SDS011;43305;52.186;5.598;2022-10-16T11:10:17;9.52;;;1.73;;
18929;SDS011;43305;52.186;5.598;2022-10-16T11:12:54;8.23;;;1.70;;
18929;SDS011;43305;52.186;5.598;2022-10-16T11:15:28;8.90;;;1.52;;
18929;SDS011;43305;52.186;5.598;2022-10-16T11:17:59;9.65;;;1.45;;
18929;SDS011;43305;52.186;5.598;2022-10-16T11:20:33;12.40;;;2.10;;
18929;SDS011;43305;52.186;5.598;2022-10-16T11:23:07;9.38;;;1.73;;
18929;SDS011;43305;52.186;5.598;2022-10-16T11:25:40;8.30;;;1.95;;
18929;SDS011;43305;52.186;5.598;2022-10-16T11:28:10;12.27;;;1.83;;
18929;SDS011;43305;52.186;5.598;2022-10-16T11:30:41;10.70;;;1.55;;
18929;SDS011;43305;52.186;5.598;2022-10-16T11:35:59;12.32;;;2.28;;
18929;SDS011;43305;52.186;5.598;2022-10-16T11:38:32;15.20;;;2.20;;
18929;SDS011;43305;52.186;5.598;2022-10-16T11:41:09;9.20;;;1.33;;
18929;SDS011;43305;52.186;5.598;2022-10-16T11:43:45;6.75;;;1.38;;
18929;SDS011;43305;52.186;5.598;2022-10-16T11:46:22;12.93;;;2.00;;
18929;SDS011;43305;52.186;5.598;2022-10-16T11:48:54;8.30;;;1.70;;
18929;SDS011;43305;52.186;5.598;2022-10-16T11:51:30;8.70;;;1.60;;
18929;SDS011;43305;52.186;5.598;2022-10-16T11:54:02;11.40;;;1.60;;
18929;SDS011;43305;52.186;5.598;2022-10-16T11:56:36;9.02;;;1.50;;
18929;SDS011;43305;52.186;5.598;2022-10-16T11:59:07;9.52;;;1.65;;
18929;SDS011;43305;52.186;5.598;2022-10-16T12:01:43;9.20;;;1.40;;
18929;SDS011;43305;52.186;5.598;2022-10-16T12:04:17;8.93;;;1.42;;
18929;SDS011;43305;52.186;5.598;2022-10-16T12:06:55;10.80;;;1.42;;
18929;SDS011;43305;52.186;5.598;2022-10-16T12:09:27;8.50;;;1.80;;
18929;SDS011;43305;52.186;5.598;2022-10-16T12:12:00;9.88;;;1.98;;
18929;SDS011;43305;52.186;5.598;2022-10-16T12:14:34;9.93;;;1.83;;
18929;SDS011;43305;52.186;5.598;2022-10-16T12:19:56;11.10;;;1.38;;
18929;SDS011;43305;52.186;5.598;2022-10-16T12:22:27;8.52;;;1.50;;
18929;SDS011;43305;52.186;5.598;2022-10-16T12:24:57;7.97;;;1.70;;
18929;SDS011;43305;52.186;5.598;2022-10-16T12:27:28;8.00;;;1.63;;
18929;SDS011;43305;52.186;5.598;2022-10-16T12:30:20;9.07;;;1.48;;
18929;SDS011;43305;52.186;5.598;2022-10-16T12:32:54;8.18;;;1.30;;
18929;SDS011;43305;52.186;5.598;2022-10-16T12:35:25;15.93;;;1.60;;
18929;SDS011;43305;52.186;5.598;2022-10-16T12:38:08;9.57;;;1.52;;
18929;SDS011;43305;52.186;5.598;2022-10-16T12:40:46;9.05;;;1.73;;
18929;SDS011;43305;52.186;5.598;2022-10-16T12:43:27;6.85;;;1.35;;
18929;SDS011;43305;52.186;5.598;2022-10-16T12:49:06;5.18;;;1.23;;
18929;SDS011;43305;52.186;5.598;2022-10-16T12:51:49;8.07;;;1.50;;
18929;SDS011;43305;52.186;5.598;2022-10-16T12:54:21;8.68;;;1.73;;
18929;SDS011;43305;52.186;5.598;2022-10-16T12:57:02;10.43;;;1.67;;
18929;SDS011;43305;52.186;5.598;2022-10-16T12:59:50;7.03;;;1.30;;
18929;SDS011;43305;52.186;5.598;2022-10-16T13:02:39;6.15;;;1.35;;
18929;SDS011;43305;52.186;5.598;2022-10-16T13:05:24;9.40;;;1.45;;
18929;SDS011;43305;52.186;5.598;2022-10-16T13:08:06;9.90;;;1.75;;
18929;SDS011;43305;52.186;5.598;2022-10-16T13:10:54;8.70;;;1.60;;
18929;SDS011;43305;52.186;5.598;2022-10-16T13:16:17;11.00;;;1.70;;
18929;SDS011;43305;52.186;5.598;2022-10-16T13:18:58;7.85;;;1.60;;
18929;SDS011;43305;52.186;5.598;2022-10-16T13:21:38;9.15;;;1.77;;
18929;SDS011;43305;52.186;5.598;2022-10-16T13:24:16;11.65;;;1.50;;
18929;SDS011;43305;52.186;5.598;2022-10-16T13:26:55;10.90;;;2.58;;
18929;SDS011;43305;52.186;5.598;2022-10-16T13:29:32;9.57;;;1.40;;
18929;SDS011;43305;52.186;5.598;2022-10-16T13:32:00;7.05;;;2.05;;
18929;SDS011;43305;52.186;5.598;2022-10-16T13:34:41;11.38;;;1.58;;
18929;SDS011;43305;52.186;5.598;2022-10-16T13:37:16;8.38;;;1.35;;
18929;SDS011;43305;52.186;5.598;2022-10-16T13:40:01;12.00;;;2.17;;
18929;SDS011;43305;52.186;5.598;2022-10-16T13:42:35;10.77;;;1.58;;
18929;SDS011;43305;52.186;5.598;2022-10-16T13:45:04;6.82;;;1.40;;
18929;SDS011;43305;52.186;5.598;2022-10-16T13:47:33;8.57;;;1.92;;
18929;SDS011;43305;52.186;5.598;2022-10-16T13:50:01;10.00;;;2.13;;
18929;SDS011;43305;52.186;5.598;2022-10-16T13:52:33;14.63;;;2.03;;
18929;SDS011;43305;52.186;5.598;2022-10-16T13:55:09;9.10;;;2.42;;
18929;SDS011;43305;52.186;5.598;2022-10-16T13:57:49;8.52;;;1.85;;
18929;SDS011;43305;52.186;5.598;2022-10-16T14:00:18;8.50;;;1.90;;
18929;SDS011;43305;52.186;5.598;2022-10-16T14:02:50;10.77;;;1.60;;
18929;SDS011;43305;52.186;5.598;2022-10-16T14:05:30;13.70;;;2.08;;
18929;SDS011;43305;52.186;5.598;2022-10-16T14:07:58;14.00;;;3.10;;
18929;SDS011;43305;52.186;5.598;2022-10-16T14:10:26;6.93;;;1.70;;
18929;SDS011;43305;52.186;5.598;2022-10-16T14:13:02;8.30;;;1.73;;
18929;SDS011;43305;52.186;5.598;2022-10-16T14:15:31;9.50;;;1.92;;
18929;SDS011;43305;52.186;5.598;2022-10-16T14:18:00;14.85;;;1.90;;
18929;SDS011;43305;52.186;5.598;2022-10-16T14:20:28;16.17;;;1.75;;
18929;SDS011;43305;52.186;5.598;2022-10-16T14:22:59;8.65;;;1.80;;
18929;SDS011;43305;52.186;5.598;2022-10-16T14:25:28;9.45;;;2.10;;
18929;SDS011;43305;52.186;5.598;2022-10-16T14:27:58;10.10;;;1.70;;
18929;SDS011;43305;52.186;5.598;2022-10-16T14:30:30;11.23;;;1.55;;
18929;SDS011;43305;52.186;5.598;2022-10-16T14:33:02;10.80;;;1.60;;
18929;SDS011;43305;52.186;5.598;2022-10-16T14:35:44;14.43;;;2.00;;
18929;SDS011;43305;52.186;5.598;2022-10-16T14:38:17;10.13;;;1.85;;
18929;SDS011;43305;52.186;5.598;2022-10-16T14:40:47;12.48;;;1.42;;
18929;SDS011;43305;52.186;5.598;2022-10-16T14:43:22;8.73;;;1.60;;
18929;SDS011;43305;52.186;5.598;2022-10-16T14:45:59;10.57;;;2.05;;
18929;SDS011;43305;52.186;5.598;2022-10-16T14:48:29;13.30;;;1.90;;
18929;SDS011;43305;52.186;5.598;2022-10-16T14:50:56;10.75;;;2.00;;
18929;SDS011;43305;52.186;5.598;2022-10-16T14:53:23;9.55;;;1.80;;
18929;SDS011;43305;52.186;5.598;2022-10-16T14:55:53;8.50;;;1.98;;
18929;SDS011;43305;52.186;5.598;2022-10-16T14:58:24;11.63;;;2.20;;
18929;SDS011;43305;52.186;5.598;2022-10-16T15:00:51;8.38;;;1.48;;
18929;SDS011;43305;52.186;5.598;2022-10-16T15:03:18;6.40;;;1.50;;
18929;SDS011;43305;52.186;5.598;2022-10-16T15:05:44;8.40;;;1.67;;
18929;SDS011;43305;52.186;5.598;2022-10-16T15:08:11;7.90;;;1.60;;
18929;SDS011;43305;52.186;5.598;2022-10-16T15:10:39;6.32;;;1.50;;
18929;SDS011;43305;52.186;5.598;2022-10-16T15:13:08;10.48;;;2.00;;
18929;SDS011;43305;52.186;5.598;2022-10-16T15:15:39;11.07;;;1.90;;
18929;SDS011;43305;52.186;5.598;2022-10-16T15:18:08;10.07;;;1.98;;
18929;SDS011;43305;52.186;5.598;2022-10-16T15:20:45;9.05;;;1.73;;